Time;durP1;ratioP1;P1;durP2;ratioP2;P2;SDS_P1;SDS_P2;PMS_P1;PMS_P2;Temp;Humidity;BMP_temperature;BMP_pressure;BME280_temperature;BME280_humidity;BME280_pressure;Samples;Min_cycle;Max_cycle;Signal;HPM_P1;HPM_P2
2024/01/26 00:02:10;;;;;;;1.20;1.10;;;;;;;1.88;87.37;98321.22;107267;1256;72544;-40
2024/01/26 00:04:38;;;;;;;1.40;1.10;;;;;;;1.84;87.54;98321.75;107261;1256;67115;-40
2024/01/26 00:07:05;;;;;;;1.50;1.00;;;;;;;1.87;87.41;98319.94;107254;1257;71392;-40
2024/01/26 00:09:34;;;;;;;1.40;1.20;;;;;;;1.91;87.03;98322.30;107291;1257;59421;-40
2024/01/26 00:12:01;;;;;;;1.80;1.20;;;;;;;1.87;87.25;98325.52;107278;1256;60559;-40
2024/01/26 00:14:29;;;;;;;1.40;1.10;;;;;;;1.81;87.22;98324.68;107253;1257;73781;-40
2024/01/26 00:16:56;;;;;;;2.10;1.30;;;;;;;1.77;87.73;98328.98;107298;1256;67999;-40
2024/01/26 00:19:24;;;;;;;1.80;1.30;;;;;;;1.82;87.60;98326.33;107211;1257;72491;-40
2024/01/26 00:21:51;;;;;;;2.30;1.10;;;;;;;1.89;87.47;98324.36;107190;1257;60448;-43
2024/01/26 00:24:19;;;;;;;1.50;1.00;;;;;;;1.87;87.19;98326.13;107156;1256;59563;-40
2024/01/26 00:26:50;;;;;;;1.30;1.10;;;;;;;1.81;87.28;98327.20;107198;1257;73831;-40
2024/01/26 00:29:18;;;;;;;1.70;1.20;;;;;;;1.75;87.42;98326.98;107274;1256;67273;-40
2024/01/26 00:31:45;;;;;;;1.70;1.20;;;;;;;1.77;87.47;98327.82;107222;1257;72717;-40
2024/01/26 00:34:12;;;;;;;2.00;1.20;;;;;;;1.81;87.22;98328.41;106440;1257;1002858;-40
2024/01/26 00:36:40;;;;;;;2.30;1.30;;;;;;;1.79;87.29;98334.78;107194;1256;59578;-40
2024/01/26 00:39:08;;;;;;;2.80;1.50;;;;;;;1.74;87.46;98331.33;107160;1257;73282;-40
2024/01/26 00:41:35;;;;;;;2.20;1.50;;;;;;;1.70;87.42;98335.50;107212;1256;69005;-40
2024/01/26 00:44:03;;;;;;;2.00;1.30;;;;;;;1.73;87.18;98336.40;107240;1257;72693;-40
2024/01/26 00:46:31;;;;;;;1.80;1.30;;;;;;;1.81;87.29;98331.80;107194;1257;60489;-40
2024/01/26 00:48:59;;;;;;;1.80;1.50;;;;;;;1.80;87.41;98330.91;107186;1256;60064;-40
2024/01/26 00:51:27;;;;;;;1.90;1.50;;;;;;;1.77;87.38;98335.77;107215;1257;73833;-40
2024/01/26 00:53:55;;;;;;;2.10;1.20;;;;;;;1.75;87.41;98338.67;107268;1257;68824;-40
2024/01/26 00:56:22;;;;;;;1.50;1.20;;;;;;;1.78;87.13;98339.63;107264;1257;72051;-40
2024/01/26 00:58:50;;;;;;;1.90;1.40;;;;;;;1.83;86.80;98342.95;107267;1257;59608;-40
2024/01/26 01:01:17;;;;;;;1.70;1.50;;;;;;;1.83;86.74;98348.86;107220;1261;59747;-40
2024/01/26 01:03:45;;;;;;;2.00;1.50;;;;;;;1.78;86.88;98345.90;107279;1257;72619;-40
2024/01/26 01:06:12;;;;;;;1.80;1.50;;;;;;;1.77;86.99;98344.61;107237;1257;67921;-40
2024/01/26 01:08:40;;;;;;;2.40;1.30;;;;;;;1.82;86.77;98344.03;106395;1257;1015733;-40
2024/01/26 01:11:07;;;;;;;1.70;1.30;;;;;;;1.88;86.45;98345.94;107213;1261;60460;-39
2024/01/26 01:13:35;;;;;;;1.60;1.30;;;;;;;1.87;86.48;98348.05;107222;1257;60354;-40
2024/01/26 01:16:02;;;;;;;1.50;1.20;;;;;;;1.83;86.28;98349.72;107183;1261;74321;-40
2024/01/26 01:18:30;;;;;;;2.20;1.10;;;;;;;1.76;86.26;98350.30;107183;1257;68346;-40
2024/01/26 01:20:58;;;;;;;1.90;1.10;;;;;;;1.77;86.27;98349.36;107282;1257;71451;-40
2024/01/26 01:23:26;;;;;;;1.10;1.00;;;;;;;1.81;86.02;98349.51;107220;1257;61159;-39
2024/01/26 01:25:53;;;;;;;1.50;1.40;;;;;;;1.78;86.13;98348.03;107214;1257;60456;-40
2024/01/26 01:28:21;;;;;;;2.60;1.60;;;;;;;1.76;86.69;98348.63;107240;1257;73888;-40
2024/01/26 01:30:48;;;;;;;2.90;1.20;;;;;;;1.75;86.44;98348.66;107201;1257;68149;-39
2024/01/26 01:33:16;;;;;;;2.30;1.40;;;;;;;1.77;85.97;98348.57;107170;1257;72705;-40
2024/01/26 01:35:43;;;;;;;1.50;1.10;;;;;;;1.80;86.06;98356.17;107167;1258;60444;-40
2024/01/26 01:38:11;;;;;;;1.40;1.20;;;;;;;1.79;86.21;98354.15;107105;1256;60337;-40
2024/01/26 01:40:39;;;;;;;2.10;1.40;;;;;;;1.73;86.20;98353.65;107096;1257;73992;-39
2024/01/26 01:43:06;;;;;;;1.50;1.30;;;;;;;1.69;86.12;98351.29;107188;1257;68834;-40
2024/01/26 01:45:34;;;;;;;2.10;1.40;;;;;;;1.73;86.24;98351.80;107122;1257;71332;-40
2024/01/26 01:48:01;;;;;;;2.00;1.40;;;;;;;1.78;85.96;98352.52;107062;1257;60539;-40
2024/01/26 01:50:29;;;;;;;2.30;1.60;;;;;;;1.73;85.62;98352.34;107066;1257;59591;-39
2024/01/26 01:52:57;;;;;;;1.20;1.10;;;;;;;1.67;86.09;98357.84;107096;1257;72651;-40
2024/01/26 01:55:24;;;;;;;1.40;1.20;;;;;;;1.64;86.07;98358.58;106998;1256;68340;-40
2024/01/26 01:57:53;;;;;;;1.60;1.30;;;;;;;1.67;85.93;98362.27;107063;1257;72694;-40
2024/01/26 02:00:21;;;;;;;1.90;1.30;;;;;;;1.72;85.57;98368.40;107077;1257;60463;-39
2024/01/26 02:02:48;;;;;;;1.50;1.20;;;;;;;1.69;85.72;98374.27;107167;1257;60531;-40
2024/01/26 02:05:16;;;;;;;1.50;1.10;;;;;;;1.66;85.95;98376.18;107193;1257;72633;-39
2024/01/26 02:07:49;;;;;;;1.30;1.20;;;;;;;1.64;86.18;98378.12;107220;1257;68404;-40
2024/01/26 02:10:17;;;;;;;1.50;1.10;;;;;;;1.72;85.82;98381.16;105769;1261;1003722;-40
2024/01/26 02:12:45;;;;;;;1.40;0.90;;;;;;;1.80;85.57;98382.13;107293;1262;60578;-40
2024/01/26 02:15:13;;;;;;;1.30;0.90;;;;;;;1.78;85.60;98381.70;107220;1257;59988;-39
2024/01/26 02:17:41;;;;;;;1.50;1.10;;;;;;;1.76;85.79;98383.37;107246;1258;72556;-40
2024/01/26 02:20:09;;;;;;;0.90;0.90;;;;;;;1.75;85.72;98383.34;107254;1256;68398;-40
2024/01/26 02:22:38;;;;;;;1.40;1.20;;;;;;;1.79;85.48;98389.52;107262;1257;71411;-40
2024/01/26 02:25:07;;;;;;;1.00;0.80;;;;;;;1.82;84.86;98393.59;107285;1257;60444;-41
2024/01/26 02:27:35;;;;;;;1.50;1.00;;;;;;;1.78;85.03;98392.06;107296;1257;60530;-41
2024/01/26 02:30:04;;;;;;;1.10;1.00;;;;;;;1.75;85.45;98402.20;107243;1256;72692;-41
2024/01/26 02:32:32;;;;;;;1.20;1.00;;;;;;;1.71;85.38;98395.85;107246;1257;68484;-40
2024/01/26 02:35:00;;;;;;;1.00;0.80;;;;;;;1.71;85.19;98400.98;107152;1261;71414;-40
2024/01/26 02:37:28;;;;;;;1.60;0.80;;;;;;;1.77;85.13;98396.23;107167;1260;59359;-41
2024/01/26 02:39:56;;;;;;;1.00;0.80;;;;;;;1.79;85.40;98399.36;107189;1257;60361;-41
2024/01/26 02:42:23;;;;;;;1.10;0.90;;;;;;;1.80;85.54;98402.82;107189;1256;73845;-41
2024/01/26 02:44:50;;;;;;;1.80;1.20;;;;;;;1.80;85.77;98411.23;107244;1257;67232;-41
2024/01/26 02:47:18;;;;;;;1.10;1.00;;;;;;;1.79;85.11;98411.73;107233;1257;71422;-41
2024/01/26 02:49:46;;;;;;;2.10;1.20;;;;;;;1.81;84.95;98413.48;107165;1257;60838;-41
2024/01/26 02:52:13;;;;;;;1.00;0.90;;;;;;;1.83;84.90;98411.81;107259;1257;59391;-40
2024/01/26 02:54:41;;;;;;;1.90;1.20;;;;;;;1.77;84.82;98409.30;107221;1257;72604;-41
2024/01/26 02:57:08;;;;;;;1.60;1.20;;;;;;;1.72;85.07;98412.69;107240;1257;68595;-41
2024/01/26 02:59:36;;;;;;;1.40;1.10;;;;;;;1.69;85.03;98415.55;107224;1257;72687;-41
2024/01/26 03:02:03;;;;;;;1.00;0.80;;;;;;;1.71;84.94;98421.66;107245;1257;60543;-40
2024/01/26 03:04:31;;;;;;;1.20;1.10;;;;;;;1.77;84.98;98423.73;107242;1256;60338;-41
2024/01/26 03:06:58;;;;;;;1.40;0.90;;;;;;;1.77;84.81;98425.17;107229;1257;73788;-41
2024/01/26 03:09:26;;;;;;;1.40;1.00;;;;;;;1.73;84.85;98423.88;107256;1257;68358;-40
2024/01/26 03:11:54;;;;;;;1.30;0.90;;;;;;;1.71;84.89;98428.77;107295;1257;72649;-41
2024/01/26 03:14:21;;;;;;;1.30;0.90;;;;;;;1.69;84.76;98429.84;107238;1257;60543;-40
2024/01/26 03:16:49;;;;;;;0.80;0.80;;;;;;;1.76;84.67;98436.18;107218;1257;61197;-41
2024/01/26 03:19:16;;;;;;;1.00;0.90;;;;;;;1.81;84.25;98436.75;107060;1257;72593;-41
2024/01/26 03:21:44;;;;;;;0.80;0.80;;;;;;;1.80;84.35;98436.34;107204;1257;67144;-40
2024/01/26 03:24:12;;;;;;;1.10;1.00;;;;;;;1.80;84.71;98432.83;107256;1261;72691;-41
2024/01/26 03:26:41;;;;;;;0.80;0.80;;;;;;;1.80;84.51;98434.81;107144;1258;60452;-40
2024/01/26 03:29:09;;;;;;;0.90;0.80;;;;;;;1.82;84.00;98436.27;107089;1257;60447;-41
2024/01/26 03:31:36;;;;;;;1.10;0.90;;;;;;;1.86;83.92;98438.95;107119;1257;72623;-41
2024/01/26 03:34:04;;;;;;;1.20;0.90;;;;;;;1.84;83.79;98439.55;107099;1257;68749;-41
2024/01/26 03:36:32;;;;;;;0.90;0.80;;;;;;;1.79;83.79;98439.44;107072;1260;71402;-41
2024/01/26 03:39:00;;;;;;;1.70;1.00;;;;;;;1.75;84.12;98444.48;107101;1260;60517;-41
2024/01/26 03:41:27;;;;;;;1.00;0.80;;;;;;;1.76;84.19;98446.96;107178;1257;60420;-41
2024/01/26 03:43:55;;;;;;;1.00;0.90;;;;;;;1.83;83.82;98447.39;107109;1257;73842;-41
2024/01/26 03:46:22;;;;;;;1.10;1.00;;;;;;;1.92;83.79;98449.89;107086;1257;68704;-41
2024/01/26 03:48:50;;;;;;;0.90;0.70;;;;;;;1.93;83.61;98451.05;107184;1257;72739;-41
2024/01/26 03:51:18;;;;;;;1.30;1.00;;;;;;;1.91;83.64;98454.64;107148;1257;60437;-41
2024/01/26 03:53:45;;;;;;;1.10;0.90;;;;;;;1.85;83.58;98453.63;107239;1257;60318;-41
2024/01/26 03:56:13;;;;;;;1.40;0.90;;;;;;;1.81;83.69;98457.47;107174;1257;73748;-41
2024/01/26 03:58:43;;;;;;;1.60;0.80;;;;;;;1.86;83.49;98463.16;107201;1257;67536;-41
2024/01/26 04:01:10;;;;;;;;;;;;;;;1.88;83.42;98465.21;107261;1262;71429;-41
2024/01/26 04:03:38;;;;;;;1.90;0.80;;;;;;;1.79;83.39;98464.17;107177;1257;60578;-41
2024/01/26 04:06:08;;;;;;;1.20;0.90;;;;;;;1.70;83.96;98467.42;107217;1257;60428;-41
2024/01/26 04:08:35;;;;;;;1.70;1.00;;;;;;;1.65;84.30;98469.67;107229;1256;72573;-39
2024/01/26 04:11:04;;;;;;;1.20;0.80;;;;;;;1.69;84.33;98472.72;107169;1257;67215;-40
2024/01/26 04:13:32;;;;;;;0.80;0.80;;;;;;;1.78;84.28;98473.52;107167;1259;71378;-40
2024/01/26 04:15:59;;;;;;;1.10;1.00;;;;;;;1.80;84.33;98473.76;107065;1259;60434;-40
2024/01/26 04:18:27;;;;;;;1.70;1.20;;;;;;;1.76;84.54;98473.38;107133;1257;60333;-40
2024/01/26 04:20:55;;;;;;;1.20;1.00;;;;;;;1.71;84.46;98478.20;107154;1257;73142;-40
2024/01/26 04:23:22;;;;;;;1.20;1.00;;;;;;;1.69;84.73;98478.08;107252;1260;67105;-40
2024/01/26 04:25:50;;;;;;;1.50;1.10;;;;;;;1.72;84.45;98481.54;107162;1257;71363;-40
2024/01/26 04:28:17;;;;;;;1.80;1.50;;;;;;;1.71;84.24;98486.15;107185;1257;60563;-40
2024/01/26 04:30:45;;;;;;;1.70;1.40;;;;;;;1.68;84.84;98482.69;107152;1257;111834;-40
2024/01/26 04:35:51;;;;;;;2.40;1.80;;;;;;;1.69;85.24;98491.48;104099;1292;601132;-41
2024/01/26 04:38:18;;;;;;;2.00;1.60;;;;;;;1.65;84.97;98494.61;106476;1267;59961;-40
2024/01/26 04:40:46;;;;;;;2.10;1.40;;;;;;;1.67;84.99;98496.08;106540;1267;59187;-41
2024/01/26 04:43:14;;;;;;;1.60;1.50;;;;;;;1.73;84.95;98501.66;106552;1267;70009;-41
2024/01/26 04:45:42;;;;;;;2.20;1.50;;;;;;;1.71;84.99;98506.25;106564;1266;68544;-41
2024/01/26 04:48:10;;;;;;;1.40;1.20;;;;;;;1.66;85.08;98508.23;106582;1270;72466;-41
2024/01/26 04:50:37;;;;;;;1.50;1.20;;;;;;;1.62;85.30;98511.97;106623;1264;117628;-41
2024/01/26 04:53:05;;;;;;;1.70;1.20;;;;;;;1.68;85.33;98519.40;106728;1266;59295;-41
2024/01/26 04:55:33;;;;;;;1.10;1.00;;;;;;;1.78;85.15;98520.94;106739;1264;71032;-42
2024/01/26 04:58:01;;;;;;;1.20;1.10;;;;;;;1.78;85.18;98525.40;106740;1266;68027;-41
2024/01/26 05:00:29;;;;;;;1.60;1.10;;;;;;;1.76;85.22;98525.30;106725;1264;73138;-41
2024/01/26 05:02:56;;;;;;;1.00;0.90;;;;;;;1.75;85.31;98526.99;106727;1265;60317;-41
2024/01/26 05:05:24;;;;;;;1.70;1.10;;;;;;;1.73;85.19;98530.08;106766;1264;59660;-41
2024/01/26 05:07:52;;;;;;;2.10;1.40;;;;;;;1.78;84.99;98529.04;106706;1264;72973;-41
2024/01/26 05:10:19;;;;;;;2.40;1.10;;;;;;;1.84;84.84;98530.73;106648;1264;68702;-41
2024/01/26 05:12:47;;;;;;;3.60;1.50;;;;;;;1.83;84.74;98528.61;106666;1264;72500;-41
2024/01/26 05:15:14;;;;;;;2.70;1.40;;;;;;;1.79;84.77;98528.59;106636;1264;59717;-41
2024/01/26 05:17:42;;;;;;;2.10;1.30;;;;;;;1.74;84.84;98532.25;106679;1264;59565;-41
2024/01/26 05:20:10;;;;;;;2.50;1.20;;;;;;;1.75;84.91;98535.02;106709;1264;71785;-41
2024/01/26 05:22:38;;;;;;;3.60;1.20;;;;;;;1.82;84.98;98537.50;106670;1264;68417;-41
2024/01/26 05:25:06;;;;;;;1.80;1.20;;;;;;;1.86;84.62;98542.95;106667;1266;71510;-41
2024/01/26 05:27:34;;;;;;;2.70;1.40;;;;;;;1.84;84.62;98544.92;106729;1265;59756;-41
2024/01/26 05:30:01;;;;;;;3.10;1.30;;;;;;;1.71;84.65;98536.99;106754;1264;59574;-41
2024/01/26 05:32:29;;;;;;;2.00;1.30;;;;;;;1.74;85.01;98552.07;106709;1267;72358;-41
2024/01/26 05:34:56;;;;;;;1.30;1.10;;;;;;;1.78;84.70;98551.95;106707;1266;68731;-41
2024/01/26 05:37:24;;;;;;;2.20;1.10;;;;;;;1.85;84.60;98557.39;106673;1266;72455;-41
2024/01/26 05:39:52;;;;;;;1.40;1.30;;;;;;;1.88;84.71;98563.34;106630;1266;59671;-41
2024/01/26 05:42:19;;;;;;;1.20;0.90;;;;;;;1.83;84.54;98567.47;106634;1266;59584;-41
2024/01/26 05:44:46;;;;;;;1.40;1.20;;;;;;;1.76;84.69;98573.00;106758;1263;73230;-41
2024/01/26 05:47:14;;;;;;;1.20;1.10;;;;;;;1.73;84.90;98574.11;106865;1267;68432;-41
2024/01/26 05:49:44;;;;;;;1.20;1.10;;;;;;;1.76;84.57;98576.89;106835;1263;71732;-41
2024/01/26 05:52:12;;;;;;;0.70;0.70;;;;;;;1.81;84.74;98581.98;106868;1267;59614;-41
2024/01/26 05:54:39;;;;;;;0.90;0.80;;;;;;;1.83;84.82;98587.88;106100;1267;1003059;-41
2024/01/26 05:57:07;;;;;;;2.00;1.10;;;;;;;1.79;84.71;98589.55;106826;1263;73064;-41
2024/01/26 05:59:37;;;;;;;1.30;1.00;;;;;;;1.75;84.87;98594.66;106878;1263;67091;-41
2024/01/26 06:02:05;;;;;;;0.80;0.80;;;;;;;1.72;85.05;98596.21;106831;1263;73910;-41
2024/01/26 06:04:32;;;;;;;1.00;0.80;;;;;;;1.75;84.80;98594.59;106829;1263;60882;-41
2024/01/26 06:07:00;;;;;;;1.40;1.00;;;;;;;1.79;84.59;98597.79;106764;1262;60026;-41
2024/01/26 06:09:28;;;;;;;1.60;1.00;;;;;;;1.79;84.74;98597.64;105991;1263;1003087;-40
2024/01/26 06:11:55;;;;;;;2.70;1.20;;;;;;;1.76;85.12;98597.45;106706;1262;67142;-40
2024/01/26 06:14:23;;;;;;;1.20;1.00;;;;;;;1.71;84.89;98600.59;106764;1266;72372;-41
2024/01/26 06:16:51;;;;;;;1.30;1.00;;;;;;;1.65;84.98;98603.70;106845;1263;59748;-40
2024/01/26 06:19:19;;;;;;;1.30;1.20;;;;;;;1.70;85.03;98604.89;106857;1263;59555;-40
2024/01/26 06:21:47;;;;;;;1.30;1.00;;;;;;;1.63;84.97;98586.44;106869;1263;73653;-40
2024/01/26 06:24:14;;;;;;;1.10;1.00;;;;;;;1.81;85.38;98612.30;106865;1263;67081;-40
2024/01/26 06:26:42;;;;;;;1.10;0.90;;;;;;;1.83;85.69;98621.41;106815;1263;71433;-40
2024/01/26 06:29:09;;;;;;;2.00;0.90;;;;;;;1.85;85.24;98626.86;106740;1263;59663;-40
2024/01/26 06:31:37;;;;;;;1.20;1.00;;;;;;;1.81;84.99;98630.26;106717;1263;59141;-41
2024/01/26 06:34:04;;;;;;;1.30;1.00;;;;;;;1.84;84.81;98633.04;106780;1263;73013;-41
2024/01/26 06:36:32;;;;;;;1.20;0.80;;;;;;;1.86;84.43;98633.79;106873;1267;68679;-41
2024/01/26 06:39:00;;;;;;;1.50;1.00;;;;;;;1.82;84.58;98640.66;106837;1263;72712;-41
2024/01/26 06:41:28;;;;;;;1.10;0.90;;;;;;;1.80;85.08;98648.20;106854;1262;59548;-41
2024/01/26 06:43:55;;;;;;;2.40;1.00;;;;;;;1.80;85.29;98650.80;106864;1263;59305;-41
2024/01/26 06:46:23;;;;;;;1.30;1.00;;;;;;;1.81;85.33;98651.05;106885;1262;73029;-40
2024/01/26 06:48:50;;;;;;;0.80;0.80;;;;;;;1.86;84.86;98653.91;106887;1263;68733;-40
2024/01/26 06:51:19;;;;;;;1.10;0.90;;;;;;;1.92;84.57;98659.24;106881;1263;72853;-40
2024/01/26 06:53:47;;;;;;;0.90;0.80;;;;;;;1.89;84.51;98668.13;106869;1263;59550;-40
2024/01/26 06:56:14;;;;;;;1.00;0.90;;;;;;;1.83;84.72;98672.55;106888;1263;60049;-40
2024/01/26 06:58:42;;;;;;;1.50;1.10;;;;;;;1.81;84.98;98675.21;106869;1263;73145;-41
2024/01/26 07:01:09;;;;;;;1.30;1.20;;;;;;;1.79;85.13;98677.66;106891;1267;67246;-41
2024/01/26 07:03:37;;;;;;;1.40;0.90;;;;;;;1.85;84.89;98675.67;106785;1263;72455;-41
2024/01/26 07:06:05;;;;;;;1.00;0.90;;;;;;;1.96;84.98;98682.09;106852;1263;59644;-41
2024/01/26 07:08:32;;;;;;;1.00;0.90;;;;;;;2.00;84.73;98685.69;106888;1263;59289;-41
2024/01/26 07:11:06;;;;;;;1.40;1.00;;;;;;;2.01;84.92;98691.48;106891;1263;73089;-41
2024/01/26 07:13:34;;;;;;;0.80;0.80;;;;;;;2.04;85.09;98692.13;106859;1267;67112;-41
2024/01/26 07:16:01;;;;;;;1.90;1.10;;;;;;;2.08;84.87;98696.20;106844;1263;71482;-41
2024/01/26 07:18:29;;;;;;;1.80;1.20;;;;;;;2.12;84.21;98701.20;106861;1263;60025;-40
2024/01/26 07:20:57;;;;;;;2.30;0.90;;;;;;;2.18;83.90;98708.45;106904;1263;59559;-40
2024/01/26 07:23:24;;;;;;;0.80;0.80;;;;;;;2.22;83.74;98711.27;106889;1262;73064;-39
2024/01/26 07:25:52;;;;;;;0.90;0.90;;;;;;;2.21;83.78;98714.77;106898;1263;66130;-40
2024/01/26 07:28:19;;;;;;;1.10;1.00;;;;;;;2.22;83.83;98719.39;106872;1263;72569;-40
2024/01/26 07:30:47;;;;;;;0.90;0.90;;;;;;;2.19;83.49;98724.48;106877;1263;59998;-40
2024/01/26 07:33:14;;;;;;;1.00;0.90;;;;;;;2.22;83.41;98727.65;106861;1266;59531;-40
2024/01/26 07:35:42;;;;;;;0.70;0.60;;;;;;;2.30;83.04;98728.45;106845;1267;73084;-40
2024/01/26 07:38:10;;;;;;;1.00;0.90;;;;;;;2.32;83.16;98730.70;106846;1262;68336;-40
2024/01/26 07:40:37;;;;;;;0.70;0.70;;;;;;;2.30;83.06;98738.30;106066;1263;1003679;-40
2024/01/26 07:43:05;;;;;;;1.20;0.80;;;;;;;2.28;83.02;98739.79;106710;1263;59759;-40
2024/01/26 07:45:32;;;;;;;1.00;0.90;;;;;;;2.27;83.06;98746.42;106764;1263;61046;-39
2024/01/26 07:48:00;;;;;;;0.80;0.80;;;;;;;2.32;82.98;98746.00;106746;1263;72774;-40
2024/01/26 07:50:28;;;;;;;1.30;0.90;;;;;;;2.40;82.66;98750.60;106706;1263;68384;-40
2024/01/26 07:52:55;;;;;;;1.00;0.90;;;;;;;2.45;82.87;98754.21;106828;1262;72715;-40
2024/01/26 07:55:23;;;;;;;2.00;0.80;;;;;;;2.46;82.68;98757.29;103764;1263;1003810;-40
2024/01/26 07:57:50;;;;;;;1.00;0.90;;;;;;;2.48;82.72;98757.08;106790;1262;59980;-40
2024/01/26 08:00:19;;;;;;;0.90;0.80;;;;;;;2.51;82.61;98763.94;106849;1263;73044;-40
2024/01/26 08:02:47;;;;;;;1.50;0.80;;;;;;;2.57;82.47;98766.36;107068;1260;68332;-40
2024/01/26 08:05:15;;;;;;;0.70;0.70;;;;;;;2.64;82.43;98775.13;107021;1260;73007;-40
2024/01/26 08:07:43;;;;;;;0.90;0.80;;;;;;;2.72;82.33;98777.14;107063;1260;60867;-41
2024/01/26 08:10:11;;;;;;;1.00;0.80;;;;;;;2.78;82.20;98775.79;107066;1260;60042;-41
2024/01/26 08:12:41;;;;;;;0.80;0.70;;;;;;;2.80;82.04;98776.56;106969;1260;70896;-41
2024/01/26 08:15:13;;;;;;;0.90;0.80;;;;;;;2.80;81.40;98783.59;107058;1263;68386;-41
2024/01/26 08:17:41;;;;;;;0.90;0.70;;;;;;;2.83;81.42;98778.20;107006;1260;71694;-40
2024/01/26 08:20:10;;;;;;;1.10;1.00;;;;;;;2.91;81.30;98785.72;106990;1260;59767;-40
2024/01/26 08:22:39;;;;;;;0.80;0.80;;;;;;;2.95;81.37;98789.77;107044;1260;59765;-41
2024/01/26 08:25:08;;;;;;;1.00;0.90;;;;;;;2.97;81.32;98788.48;107040;1260;72870;-41
2024/01/26 08:27:36;;;;;;;1.10;0.90;;;;;;;2.97;80.94;98794.21;107115;1261;67065;-40
2024/01/26 08:30:05;;;;;;;1.20;1.10;;;;;;;2.98;80.97;98797.23;107025;1260;72869;-41
2024/01/26 08:32:32;;;;;;;1.00;0.90;;;;;;;3.04;80.74;98801.84;107023;1260;60623;-40
2024/01/26 08:35:00;;;;;;;0.90;0.90;;;;;;;3.12;80.68;98803.71;107038;1259;60175;-39
2024/01/26 08:37:28;;;;;;;0.90;0.90;;;;;;;3.17;80.50;98802.86;107055;1260;72227;-39
2024/01/26 08:39:57;;;;;;;2.00;1.00;;;;;;;3.20;80.47;98804.64;107055;1260;67990;-39
2024/01/26 08:42:25;;;;;;;0.60;0.60;;;;;;;3.21;80.22;98809.11;107023;1258;72360;-40
2024/01/26 08:44:53;;;;;;;1.40;0.80;;;;;;;3.17;80.02;98810.37;107053;1260;60453;-40
2024/01/26 08:47:20;;;;;;;0.80;0.70;;;;;;;3.12;79.84;98810.86;107061;1260;60460;-40
2024/01/26 08:49:48;;;;;;;0.90;0.90;;;;;;;3.19;79.97;98817.86;107053;1260;74291;-40
2024/01/26 08:52:16;;;;;;;1.20;1.00;;;;;;;3.26;79.72;98817.63;107042;1260;68847;-40
2024/01/26 08:54:43;;;;;;;1.10;1.00;;;;;;;3.27;79.48;98817.81;107067;1260;72686;-40
2024/01/26 08:57:11;;;;;;;1.40;1.10;;;;;;;3.27;79.59;98821.00;107008;1263;60172;-40
2024/01/26 08:59:40;;;;;;;1.80;1.30;;;;;;;3.28;79.78;98823.13;107088;1260;60565;-40
2024/01/26 09:02:08;;;;;;;2.10;1.50;;;;;;;3.28;79.57;98829.84;107079;1258;73108;-40
2024/01/26 09:04:36;;;;;;;0.70;0.70;;;;;;;3.26;79.44;98834.10;107003;1260;70633;-41
2024/01/26 09:07:03;;;;;;;1.30;1.00;;;;;;;3.27;79.12;98834.33;107074;1260;73142;-41
2024/01/26 09:09:38;;;;;;;0.90;0.80;;;;;;;3.28;78.69;98833.38;107033;1259;60325;-40
2024/01/26 09:12:06;;;;;;;0.70;0.70;;;;;;;3.24;78.93;98833.53;107074;1257;59371;-41
2024/01/26 09:14:33;;;;;;;1.10;0.80;;;;;;;3.20;79.16;98833.44;107213;1261;72683;-41
2024/01/26 09:17:01;;;;;;;1.50;0.80;;;;;;;3.20;79.27;98833.60;107073;1257;68714;-39
2024/01/26 09:19:29;;;;;;;1.00;0.90;;;;;;;3.14;79.00;98832.59;107228;1257;72798;-40
2024/01/26 09:21:57;;;;;;;0.80;0.80;;;;;;;3.15;79.39;98831.78;107181;1257;60166;-40
2024/01/26 09:24:24;;;;;;;1.00;0.80;;;;;;;3.22;79.25;98839.42;107216;1257;60447;-40
2024/01/26 09:26:52;;;;;;;1.20;0.90;;;;;;;3.24;79.31;98835.58;107218;1257;73906;-40
2024/01/26 09:29:20;;;;;;;0.90;0.80;;;;;;;3.19;79.37;98832.58;107199;1257;68581;-40
2024/01/26 09:31:50;;;;;;;0.70;0.70;;;;;;;3.16;79.83;98828.84;107376;1259;72661;-41
2024/01/26 11:56:15;;;;;;;0.80;0.70;;;;;;;2.58;90.88;98929.98;104964;1283;613467;-39
2024/01/26 11:58:43;;;;;;;0.60;0.60;;;;;;;3.01;89.53;98936.59;106466;1264;161763;-39
2024/01/26 12:01:11;;;;;;;0.60;0.40;;;;;;;3.07;89.15;98937.77;106648;1264;60102;-39
2024/01/26 12:03:40;;;;;;;1.40;0.80;;;;;;;3.16;88.64;98937.49;106696;1267;72227;-39
2024/01/26 12:06:08;;;;;;;0.40;0.40;;;;;;;3.24;88.32;98943.06;106736;1270;68730;-39
2024/01/26 12:08:37;;;;;;;0.50;0.50;;;;;;;3.27;87.93;98944.70;106742;1267;72744;-39
2024/01/26 12:11:05;;;;;;;1.10;0.70;;;;;;;3.27;87.70;98949.52;106669;1264;59372;-39
2024/01/26 12:13:32;;;;;;;0.50;0.50;;;;;;;3.26;87.28;98952.83;106734;1267;59160;-39
2024/01/26 12:16:00;;;;;;;1.00;0.70;;;;;;;3.28;86.49;98954.20;106694;1267;72298;-39
2024/01/26 12:18:27;;;;;;;1.70;0.60;;;;;;;3.32;85.92;98954.16;106730;1269;67201;-40
2024/01/26 12:20:56;;;;;;;1.10;0.80;;;;;;;3.32;85.53;98961.29;106624;1266;71867;-39
2024/01/26 12:23:24;;;;;;;1.70;0.80;;;;;;;3.29;85.53;98964.36;106715;1272;59656;-40
2024/01/26 12:25:52;;;;;;;0.80;0.80;;;;;;;3.27;85.51;98969.02;106777;1266;60145;-39
2024/01/26 12:28:20;;;;;;;1.00;0.70;;;;;;;3.26;85.41;98975.96;106743;1264;73184;-39
2024/01/26 12:30:48;;;;;;;0.60;0.60;;;;;;;3.30;84.72;98975.88;106763;1267;67825;-39
2024/01/26 12:33:16;;;;;;;0.60;0.60;;;;;;;3.32;84.58;98978.27;106799;1267;72872;-39
2024/01/26 12:35:46;;;;;;;1.00;0.80;;;;;;;3.28;84.50;98982.70;106792;1264;61299;-39
2024/01/26 12:38:15;;;;;;;1.80;0.80;;;;;;;3.25;84.61;98983.93;106602;1264;60140;-39
2024/01/26 12:40:44;;;;;;;0.90;0.90;;;;;;;3.22;84.63;98979.59;106616;1267;71170;-40
2024/01/26 12:43:12;;;;;;;0.50;0.50;;;;;;;3.28;84.48;98986.35;106622;1264;67656;-40
2024/01/26 12:45:40;;;;;;;0.90;0.80;;;;;;;3.34;84.16;98984.63;106693;1267;72326;-40
2024/01/26 12:48:08;;;;;;;2.40;1.00;;;;;;;3.34;84.13;98989.45;106691;1267;59641;-40
2024/01/26 12:50:36;;;;;;;1.00;0.90;;;;;;;3.30;84.14;98993.09;106773;1269;60081;-40
2024/01/26 12:53:03;;;;;;;1.80;1.10;;;;;;;3.26;84.20;98991.23;106716;1265;71683;-40
2024/01/26 12:55:31;;;;;;;1.30;1.10;;;;;;;3.22;84.13;98993.40;106763;1267;67610;-40
2024/01/26 12:57:58;;;;;;;1.00;0.90;;;;;;;3.25;83.94;98997.73;106583;1270;72805;-40
2024/01/26 13:00:26;;;;;;;1.00;0.90;;;;;;;3.28;83.67;98995.63;106652;1267;59637;-40
2024/01/26 13:03:00;;;;;;;1.30;1.00;;;;;;;3.21;83.63;98996.87;106741;1272;59854;-40
2024/01/26 13:05:27;;;;;;;0.90;0.70;;;;;;;3.16;83.96;98998.05;106748;1267;71899;-39
2024/01/26 13:07:55;;;;;;;0.90;0.80;;;;;;;3.13;83.85;99000.58;106756;1267;67109;-39
2024/01/26 13:10:23;;;;;;;0.90;0.90;;;;;;;3.09;83.70;99003.77;106718;1266;71540;-39
2024/01/26 13:12:51;;;;;;;1.20;1.10;;;;;;;3.11;83.37;99005.40;106734;1270;60991;-39
2024/01/26 13:15:20;;;;;;;1.20;1.00;;;;;;;3.11;83.37;99010.54;106732;1267;59839;-39
2024/01/26 13:17:49;;;;;;;1.30;1.20;;;;;;;3.06;83.57;99016.09;106736;1270;72209;-39
2024/01/26 13:20:19;;;;;;;1.10;1.00;;;;;;;3.00;83.70;99018.96;106804;1269;68664;-39
2024/01/26 13:22:48;;;;;;;0.80;0.80;;;;;;;2.97;83.92;99015.38;106672;1270;72999;-39
2024/01/26 13:25:16;;;;;;;1.50;1.30;;;;;;;3.03;83.86;99017.45;106566;1271;60974;-39
2024/01/26 13:27:44;;;;;;;1.50;1.40;;;;;;;3.09;83.72;99021.67;106633;1267;60341;-39
2024/01/26 13:30:14;;;;;;;1.30;1.20;;;;;;;3.10;83.89;99020.21;106652;1270;73235;-39
2024/01/26 13:32:43;;;;;;;1.20;1.10;;;;;;;3.09;83.66;99028.50;106923;1264;67657;-39
2024/01/26 13:35:12;;;;;;;;;;;;;;;3.01;83.69;99029.48;107005;1265;73077;-39
2024/01/26 13:37:39;;;;;;;1.60;1.30;;;;;;;2.95;83.82;99036.48;106861;1268;59750;-39
2024/01/26 13:40:07;;;;;;;1.30;1.10;;;;;;;2.97;83.67;99040.45;106864;1267;59972;-39
2024/01/26 13:42:35;;;;;;;1.40;1.10;;;;;;;3.01;83.67;99040.52;106888;1262;71826;-39
2024/01/26 13:45:06;;;;;;;1.20;1.10;;;;;;;3.00;83.58;99043.66;106853;1264;68928;-39
2024/01/26 13:47:33;;;;;;;1.10;0.90;;;;;;;2.97;83.79;99048.64;106908;1264;72292;-39
2024/01/26 13:50:01;;;;;;;1.60;1.50;;;;;;;2.92;83.90;99045.06;106853;1267;59390;-40
2024/01/26 13:52:30;;;;;;;1.00;0.90;;;;;;;2.90;83.85;99048.02;106883;1267;60887;-39
2024/01/26 13:54:57;;;;;;;1.80;1.00;;;;;;;2.91;83.76;99055.67;106836;1264;73254;-39
2024/01/26 13:57:25;;;;;;;1.20;1.00;;;;;;;2.93;83.71;99057.21;106855;1267;68846;-39
2024/01/26 13:59:52;;;;;;;0.80;0.80;;;;;;;2.92;83.71;99060.69;106860;1263;71491;-39
2024/01/26 14:02:40;;;;;;;1.30;0.90;;;;;;;2.88;83.94;99066.16;106859;1264;59572;-39